Terminal Aerodrome Forecast
Issued by NWS Wakefield, VA

Home | Current Version | Previous Version | Text Only | Print | Product List | Glossary On
Versions: 1 2 3 4 5 6 7 8 9 10 11 12 13 14 15
000
FTUS41 KAKQ 241738
TAFRIC
TAF
KRIC 241738Z 2418/2518 19008KT P6SM SCT030
     FM250500 17005KT P6SM SCT150
     FM250900 17004KT P6SM BKN015
     FM251500 18009KT P6SM BKN120=

USA.gov is the U.S. government's official web portal to all federal, state and local government web resources and services.